Time;durP1;ratioP1;P1;durP2;ratioP2;P2;SDS_P1;SDS_P2;PMS_P1;PMS_P2;Temp;Humidity;BMP_temperature;BMP_pressure;BME280_temperature;BME280_humidity;BME280_pressure;Samples;Min_cycle;Max_cycle;Signal;HPM_P1;HPM_P2
2023/03/25 00:00:21;;;;;;;0.20;0.20;;;9.00;99.90;;;;;;5045880;28;20191;-84
2023/03/25 00:02:49;;;;;;;0.20;0.20;;;8.90;99.90;;;;;;5047794;28;20220;-84
2023/03/25 00:05:18;;;;;;;0.20;0.20;;;8.90;99.90;;;;;;5046375;28;20441;-85
2023/03/25 00:07:45;;;;;;;0.20;0.20;;;8.90;99.90;;;;;;5046693;28;20937;-83
2023/03/25 00:10:12;;;;;;;0.20;0.20;;;8.90;99.90;;;;;;5047791;28;20449;-84
2023/03/25 00:12:38;;;;;;;0.20;0.20;;;8.80;99.90;;;;;;5042928;28;20526;-83
2023/03/25 00:15:09;;;;;;;0.20;0.20;;;8.80;99.90;;;;;;5046591;28;20568;-85
2023/03/25 00:17:37;;;;;;;0.20;0.20;;;8.70;99.90;;;;;;5051026;28;20174;-84
2023/03/25 00:20:04;;;;;;;0.20;0.20;;;8.70;99.90;;;;;;5054500;28;20585;-84
2023/03/25 00:22:31;;;;;;;0.20;0.20;;;8.80;99.90;;;;;;5045037;28;20453;-85
2023/03/25 00:24:56;;;;;;;0.20;0.20;;;8.80;99.90;;;;;;5048050;28;20488;-85
2023/03/25 00:27:22;;;;;;;0.20;0.20;;;8.90;99.90;;;;;;5046472;28;20280;-84
2023/03/25 00:29:47;;;;;;;0.20;0.20;;;8.80;99.90;;;;;;5046742;28;20230;-83
2023/03/25 00:32:14;;;;;;;0.20;0.20;;;8.90;99.90;;;;;;5047638;28;20183;-85
2023/03/25 00:34:45;;;;;;;0.10;0.10;;;8.90;99.90;;;;;;5051350;28;20178;-84
2023/03/25 00:37:12;;;;;;;0.20;0.20;;;8.90;99.90;;;;;;5047247;28;20448;-84
2023/03/25 00:39:37;;;;;;;0.20;0.20;;;8.90;99.90;;;;;;5049508;28;20903;-84
2023/03/25 00:42:03;;;;;;;0.20;0.20;;;8.90;99.90;;;;;;5045974;28;20528;-84
2023/03/25 00:44:30;;;;;;;0.20;0.20;;;8.90;99.90;;;;;;5046867;28;20245;-84
2023/03/25 00:46:55;;;;;;;0.20;0.20;;;8.90;99.90;;;;;;5045762;28;20269;-84
2023/03/25 00:49:23;;;;;;;0.20;0.20;;;9.00;99.90;;;;;;5056564;28;20592;-84
2023/03/25 00:51:50;;;;;;;0.20;0.20;;;8.90;99.90;;;;;;5045727;28;20846;-85
2023/03/25 00:54:17;;;;;;;0.20;0.20;;;9.00;99.90;;;;;;5047715;28;20437;-84
2023/03/25 00:56:42;;;;;;;0.20;0.20;;;9.00;99.90;;;;;;5046452;28;20440;-84
2023/03/25 00:59:08;;;;;;;0.20;0.20;;;9.00;99.90;;;;;;5046659;28;20855;-84
2023/03/25 01:01:38;;;;;;;0.20;0.20;;;9.00;99.90;;;;;;5048069;28;20210;-84
2023/03/25 01:04:10;;;;;;;0.20;0.20;;;9.00;99.90;;;;;;5037593;28;20209;-84
2023/03/25 01:06:37;;;;;;;0.20;0.20;;;8.90;99.90;;;;;;5046703;28;20460;-84
2023/03/25 01:09:05;;;;;;;0.20;0.20;;;;;;;;;;5041016;28;20561;-84
2023/03/25 01:11:34;;;;;;;0.20;0.20;;;;;;;;;;5046448;28;20444;-85
2023/03/25 01:14:01;;;;;;;0.20;0.20;;;;;;;;;;5042492;28;20521;-84
2023/03/25 01:16:27;;;;;;;0.20;0.20;;;;;;;;;;5044387;28;20452;-85
2023/03/25 01:18:54;;;;;;;0.20;0.20;;;;;;;;;;5048445;28;20484;-85
2023/03/25 01:21:20;;;;;;;0.20;0.20;;;;;;;;;;5053235;28;20800;-85
2023/03/25 01:23:45;;;;;;;0.20;0.20;;;;;;;;;;5044473;28;20528;-84
2023/03/25 01:26:12;;;;;;;0.20;0.20;;;;;;;;;;5044736;28;20544;-84
2023/03/25 01:28:38;;;;;;;0.20;0.20;;;;;;;;;;5047071;28;20476;-85
2023/03/25 01:31:06;;;;;;;0.20;0.20;;;;;;;;;;5047498;28;20473;-84
2023/03/25 01:33:32;;;;;;;0.20;0.20;;;;;;;;;;5049050;28;20452;-84
2023/03/25 01:36:01;;;;;;;0.20;0.20;;;;;;;;;;5050328;28;20471;-84
2023/03/25 01:38:29;;;;;;;0.20;0.20;;;;;;;;;;5047490;28;20483;-84
2023/03/25 01:40:55;;;;;;;0.20;0.20;;;;;;;;;;5049054;28;20425;-84
2023/03/25 01:43:22;;;;;;;0.20;0.20;;;7.90;99.90;;;;;;5048323;28;20448;-83
2023/03/25 01:45:48;;;;;;;0.20;0.20;;;8.80;99.90;;;;;;5046105;28;20433;-84
2023/03/25 01:48:21;;;;;;;0.20;0.20;;;8.90;99.90;;;;;;5049054;28;20479;-84
2023/03/25 01:51:01;;;;;;;0.20;0.20;;;8.90;99.90;;;;;;5045277;28;20656;-85
2023/03/25 01:53:29;;;;;;;0.20;0.20;;;8.90;99.90;;;;;;5039539;28;20527;-84
2023/03/25 01:55:55;;;;;;;0.20;0.20;;;8.90;99.90;;;;;;5046981;28;20468;-85
2023/03/25 01:58:25;;;;;;;0.20;0.20;;;8.90;99.90;;;;;;5048187;28;20536;-84
2023/03/25 02:00:53;;;;;;;0.20;0.20;;;8.80;99.90;;;;;;5046578;28;20977;-85
2023/03/25 02:03:21;;;;;;;0.20;0.20;;;8.80;99.90;;;;;;5046644;28;20464;-85
2023/03/25 02:05:58;;;;;;;0.30;0.30;;;8.70;99.90;;;;;;5047643;28;20826;-85
2023/03/25 02:08:25;;;;;;;0.20;0.20;;;8.70;99.90;;;;;;5044327;28;20473;-84
2023/03/25 02:10:52;;;;;;;0.30;0.30;;;8.60;99.90;;;;;;5046140;28;20531;-84
2023/03/25 02:13:18;;;;;;;0.20;0.20;;;8.60;99.90;;;;;;5048229;28;20444;-84
2023/03/25 02:16:13;;;;;;;0.20;0.20;;;8.70;99.90;;;;;;5041869;28;20445;-83
2023/03/25 02:19:04;;;;;;;0.30;0.30;;;8.60;99.90;;;;;;5043111;28;20449;-84
2023/03/25 02:22:13;;;;;;;0.20;0.20;;;8.70;99.90;;;;;;5047178;28;22216;-84
2023/03/25 02:25:18;;;;;;;0.30;0.30;;;8.50;99.90;;;;;;5020396;28;20449;-84
2023/03/25 02:27:55;;;;;;;0.30;0.30;;;8.50;99.90;;;;;;5044831;28;20936;-83
2023/03/25 02:30:46;;;;;;;0.20;0.20;;;8.50;99.90;;;;;;5049637;28;20531;-85
2023/03/25 02:33:30;;;;;;;0.30;0.30;;;8.50;99.90;;;;;;5050863;28;21106;-83
2023/03/25 02:36:17;;;;;;;0.20;0.20;;;8.50;99.90;;;;;;5051109;28;20539;-84
2023/03/25 02:38:54;;;;;;;0.23;0.23;;;;;;;;;;5039727;28;20448;-84
2023/03/25 02:41:40;;;;;;;0.20;0.20;;;8.50;99.90;;;;;;5055957;28;20451;-84
2023/03/25 02:44:11;;;;;;;0.20;0.20;;;8.60;99.90;;;;;;5048693;28;20893;-83
2023/03/25 02:46:42;;;;;;;0.20;0.20;;;8.50;99.90;;;;;;5048260;28;20976;-83
2023/03/25 02:49:30;;;;;;;0.20;0.20;;;8.40;99.90;;;;;;5048078;28;20630;-83
2023/03/25 02:52:02;;;;;;;0.20;0.20;;;8.40;99.90;;;;;;5043749;28;20494;-82
2023/03/25 02:54:28;;;;;;;0.20;0.20;;;;;;;;;;5040051;28;20445;-83
2023/03/25 02:56:56;;;;;;;0.20;0.20;;;8.10;99.90;;;;;;5038205;28;20487;-83
2023/03/25 02:59:24;;;;;;;0.23;0.23;;;;;;;;;;5049205;28;20446;-84
2023/03/25 03:01:57;;;;;;;0.30;0.30;;;;;;;;;;5045442;28;20455;-84
2023/03/25 03:04:24;;;;;;;0.20;0.20;;;8.20;99.90;;;;;;5049274;28;20773;-83
2023/03/25 03:06:49;;;;;;;0.20;0.20;;;8.30;99.90;;;;;;5049884;28;21127;-83
2023/03/25 03:09:26;;;;;;;0.20;0.20;;;;;;;;;;5050822;28;20489;-83
2023/03/25 03:11:59;;;;;;;0.20;0.20;;;;;;;;;;5050571;28;20566;-84
2023/03/25 03:14:44;;;;;;;0.20;0.20;;;;;;;;;;5051122;28;20499;-83
2023/03/25 03:17:20;;;;;;;0.20;0.20;;;;;;;;;;5044921;28;20432;-82
2023/03/25 03:19:52;;;;;;;0.20;0.20;;;;;;;;;;5042462;28;20453;-84
2023/03/25 03:22:28;;;;;;;0.30;0.30;;;8.00;99.90;;;;;;5047938;28;20527;-83
2023/03/25 03:25:01;;;;;;;0.20;0.20;;;8.30;99.90;;;;;;5049833;28;20449;-83
2023/03/25 03:27:33;;;;;;;0.20;0.20;;;8.40;99.90;;;;;;5043269;28;20453;-83
2023/03/25 03:30:10;;;;;;;0.30;0.30;;;8.30;99.90;;;;;;5048104;28;20621;-82
2023/03/25 03:32:45;;;;;;;0.20;0.20;;;8.30;99.90;;;;;;5049329;28;21045;-83
2023/03/25 03:35:37;;;;;;;0.20;0.20;;;8.30;99.90;;;;;;5049502;28;21264;-82
2023/03/25 03:38:08;;;;;;;0.20;0.20;;;8.40;99.90;;;;;;5048439;28;20437;-82
2023/03/25 03:40:37;;;;;;;0.20;0.20;;;8.20;99.90;;;;;;5049420;28;20437;-82
2023/03/25 03:43:12;;;;;;;0.20;0.20;;;8.20;99.90;;;;;;5048689;28;20464;-82
2023/03/25 03:45:41;;;;;;;0.20;0.20;;;8.20;99.90;;;;;;5044101;28;20854;-82
2023/03/25 03:48:23;;;;;;;0.20;0.20;;;8.20;99.90;;;;;;5046899;28;20468;-81
2023/03/25 03:50:55;;;;;;;0.20;0.20;;;8.10;99.90;;;;;;5045642;28;20587;-82
2023/03/25 03:53:33;;;;;;;0.30;0.30;;;8.40;99.90;;;;;;5043830;28;21096;-82
2023/03/25 03:56:15;;;;;;;0.30;0.30;;;8.20;99.90;;;;;;5048135;28;20949;-82
2023/03/25 03:58:42;;;;;;;0.20;0.20;;;8.30;99.90;;;;;;5051106;28;20431;-81
2023/03/25 04:01:11;;;;;;;0.20;0.20;;;7.90;99.90;;;;;;5048027;28;20433;-82
2023/03/25 04:03:48;;;;;;;0.20;0.20;;;8.10;99.90;;;;;;5045316;28;20441;-82
2023/03/25 04:06:34;;;;;;;0.23;0.23;;;8.20;99.90;;;;;;5049570;28;20537;-82
2023/03/25 04:09:27;;;;;;;0.30;0.30;;;8.00;99.90;;;;;;5045979;28;20487;-82
2023/03/25 04:11:57;;;;;;;0.23;0.23;;;8.00;99.90;;;;;;5055038;28;20449;-82
2023/03/25 04:14:24;;;;;;;0.30;0.30;;;8.00;99.90;;;;;;5037041;28;20920;-82
2023/03/25 04:16:51;;;;;;;0.30;0.30;;;;;;;;;;5040124;28;20484;-82
2023/03/25 04:19:18;;;;;;;0.30;0.30;;;7.90;99.90;;;;;;5040506;28;20471;-82
2023/03/25 04:21:44;;;;;;;0.30;0.30;;;7.90;99.90;;;;;;5041058;28;20867;-82
2023/03/25 04:24:10;;;;;;;0.30;0.30;;;8.20;99.90;;;;;;5049212;28;20453;-82
2023/03/25 04:26:37;;;;;;;0.20;0.20;;;8.30;99.90;;;;;;5046453;28;20437;-82
2023/03/25 04:29:06;;;;;;;0.20;0.20;;;8.10;99.90;;;;;;5048670;28;20758;-82
2023/03/25 04:31:31;;;;;;;0.30;0.30;;;8.20;99.90;;;;;;5046925;28;20433;-82
2023/03/25 04:33:59;;;;;;;0.20;0.20;;;;;;;;;;5048195;28;20448;-82
2023/03/25 04:36:32;;;;;;;0.20;0.20;;;7.90;99.90;;;;;;5046094;28;21901;-82
2023/03/25 04:38:58;;;;;;;0.20;0.20;;;8.10;99.90;;;;;;5047778;28;20446;-82
2023/03/25 04:41:23;;;;;;;0.20;0.20;;;8.10;99.90;;;;;;5049350;28;20475;-81
2023/03/25 04:43:49;;;;;;;0.30;0.30;;;8.00;99.90;;;;;;5048896;28;21026;-81
2023/03/25 04:46:16;;;;;;;0.27;0.27;;;7.90;99.90;;;;;;5048247;28;20187;-81
2023/03/25 04:48:43;;;;;;;0.23;0.23;;;7.70;99.90;;;;;;5048798;28;20297;-81
2023/03/25 04:51:11;;;;;;;0.30;0.30;;;7.90;99.90;;;;;;5046438;28;20473;-81
2023/03/25 04:53:37;;;;;;;0.30;0.30;;;8.00;99.90;;;;;;5044916;28;20789;-81
2023/03/25 04:56:04;;;;;;;0.30;0.30;;;8.00;99.90;;;;;;5053744;28;21144;-82
2023/03/25 04:58:29;;;;;;;0.30;0.30;;;7.60;99.90;;;;;;5062214;28;20441;-82
2023/03/25 05:00:55;;;;;;;0.30;0.30;;;7.80;99.90;;;;;;5048880;28;20437;-82
2023/03/25 05:03:23;;;;;;;0.30;0.30;;;7.50;99.90;;;;;;5047675;28;20183;-82
2023/03/25 05:05:50;;;;;;;0.30;0.30;;;7.30;99.90;;;;;;5045629;28;20182;-81
2023/03/25 05:08:17;;;;;;;0.30;0.30;;;7.40;99.90;;;;;;5050348;28;20465;-82
2023/03/25 05:10:42;;;;;;;0.30;0.30;;;7.50;99.90;;;;;;5046593;28;20960;-81
2023/03/25 05:13:09;;;;;;;0.20;0.20;;;7.50;99.90;;;;;;5047020;28;20498;-81
2023/03/25 05:15:38;;;;;;;0.30;0.30;;;7.60;99.90;;;;;;5048605;28;20199;-81
2023/03/25 05:18:08;;;;;;;0.30;0.30;;;7.80;99.90;;;;;;5050231;28;20952;-81
2023/03/25 05:20:38;;;;;;;0.30;0.30;;;7.60;99.90;;;;;;5042816;28;20449;-81
2023/03/25 05:23:17;;;;;;;0.30;0.30;;;7.30;99.90;;;;;;5041299;28;20450;-82
2023/03/25 05:25:47;;;;;;;0.30;0.30;;;7.40;99.90;;;;;;5042490;28;20452;-82
2023/03/25 05:28:13;;;;;;;0.30;0.30;;;7.60;99.90;;;;;;5042953;28;20872;-82
2023/03/25 05:30:40;;;;;;;0.20;0.20;;;7.70;99.90;;;;;;5045842;28;20483;-82
2023/03/25 05:33:09;;;;;;;0.20;0.20;;;7.60;99.90;;;;;;5049529;28;21251;-82
2023/03/25 05:35:35;;;;;;;0.20;0.20;;;7.50;99.90;;;;;;5050679;28;20460;-83
2023/03/25 05:38:00;;;;;;;0.30;0.30;;;7.60;99.90;;;;;;5047551;28;20442;-82
2023/03/25 05:40:26;;;;;;;0.30;0.30;;;7.70;99.90;;;;;;5047364;28;21079;-82
2023/03/25 05:42:54;;;;;;;0.20;0.20;;;7.40;99.90;;;;;;5057533;28;20190;-82
2023/03/25 05:45:21;;;;;;;0.30;0.30;;;7.60;99.90;;;;;;5048623;28;20199;-82
2023/03/25 05:47:46;;;;;;;0.20;0.20;;;7.50;99.90;;;;;;5054491;28;20447;-82
2023/03/25 05:50:13;;;;;;;0.20;0.20;;;7.70;99.90;;;;;;5064208;28;20488;-82
2023/03/25 05:52:42;;;;;;;0.20;0.20;;;7.60;99.90;;;;;;5050308;28;20189;-83
2023/03/25 05:55:15;;;;;;;0.20;0.20;;;7.60;99.90;;;;;;5048900;28;20448;-82
2023/03/25 05:57:41;;;;;;;0.20;0.20;;;7.70;99.90;;;;;;5054843;28;20989;-83
2023/03/25 06:00:08;;;;;;;0.20;0.20;;;7.70;99.90;;;;;;5062638;28;20455;-83
2023/03/25 06:02:37;;;;;;;0.20;0.20;;;7.60;99.90;;;;;;5040697;28;20191;-82
2023/03/25 06:05:08;;;;;;;0.30;0.30;;;7.60;99.90;;;;;;5047765;28;20995;-83
2023/03/25 06:07:38;;;;;;;0.20;0.20;;;7.60;99.90;;;;;;5045015;28;20448;-82
2023/03/25 06:10:04;;;;;;;0.20;0.20;;;7.60;99.90;;;;;;5047630;28;20969;-83
2023/03/25 06:12:32;;;;;;;0.20;0.20;;;7.80;99.90;;;;;;5046352;28;20441;-84
2023/03/25 06:14:58;;;;;;;0.30;0.30;;;7.70;99.90;;;;;;5050557;28;20460;-83
2023/03/25 06:17:23;;;;;;;0.23;0.23;;;7.60;99.90;;;;;;5050319;28;20436;-82
2023/03/25 06:19:50;;;;;;;0.30;0.30;;;7.50;99.90;;;;;;5049435;28;20988;-82
2023/03/25 06:22:19;;;;;;;0.20;0.20;;;7.50;99.90;;;;;;5047929;28;20187;-82
2023/03/25 06:24:46;;;;;;;0.30;0.30;;;7.40;99.90;;;;;;5051642;28;20453;-82
2023/03/25 06:27:14;;;;;;;0.20;0.20;;;7.60;99.90;;;;;;5050234;28;20459;-82
2023/03/25 06:29:42;;;;;;;0.20;0.20;;;7.50;99.90;;;;;;5047452;28;20484;-84
2023/03/25 06:32:11;;;;;;;0.30;0.30;;;7.50;99.90;;;;;;5041172;28;20441;-85
2023/03/25 06:34:38;;;;;;;0.20;0.20;;;7.50;99.90;;;;;;5043643;28;20468;-81
2023/03/25 06:37:04;;;;;;;0.20;0.20;;;7.30;99.90;;;;;;5044968;28;20802;-81
2023/03/25 06:39:30;;;;;;;0.30;0.30;;;7.50;99.90;;;;;;5050336;28;20445;-82
2023/03/25 06:41:59;;;;;;;0.30;0.30;;;7.40;99.90;;;;;;5049424;28;20884;-81
2023/03/25 06:44:26;;;;;;;0.30;0.30;;;7.50;99.90;;;;;;5043643;28;20485;-82
2023/03/25 06:46:52;;;;;;;0.30;0.30;;;7.40;99.90;;;;;;5048569;28;20510;-82
2023/03/25 06:49:18;;;;;;;0.30;0.30;;;7.50;99.90;;;;;;5039179;28;20497;-82
2023/03/25 06:51:44;;;;;;;0.20;0.20;;;7.40;99.90;;;;;;5041024;28;20260;-81
2023/03/25 06:54:09;;;;;;;0.20;0.20;;;7.40;99.90;;;;;;5050182;28;20481;-82
2023/03/25 06:56:35;;;;;;;0.20;0.20;;;7.50;99.90;;;;;;5045335;28;20190;-82
2023/03/25 06:59:01;;;;;;;0.20;0.20;;;7.50;99.90;;;;;;5040260;28;20733;-82
2023/03/25 07:01:26;;;;;;;0.20;0.20;;;7.50;99.90;;;;;;5042066;28;20218;-83
2023/03/25 07:03:52;;;;;;;0.30;0.30;;;7.40;99.90;;;;;;5059429;28;20195;-82
2023/03/25 07:06:20;;;;;;;0.30;0.30;;;7.50;99.90;;;;;;5046902;28;20191;-82
2023/03/25 07:08:47;;;;;;;0.20;0.20;;;7.60;99.90;;;;;;5049321;28;20226;-81
2023/03/25 07:11:14;;;;;;;0.30;0.30;;;7.60;99.90;;;;;;5043172;28;20481;-82
2023/03/25 07:13:39;;;;;;;0.20;0.20;;;7.70;99.90;;;;;;5049595;28;20456;-82
2023/03/25 07:16:06;;;;;;;0.20;0.20;;;7.60;99.90;;;;;;5044997;28;20441;-82
2023/03/25 07:18:31;;;;;;;0.30;0.30;;;7.70;99.90;;;;;;5042777;28;20240;-82
2023/03/25 07:20:57;;;;;;;0.20;0.20;;;7.70;99.90;;;;;;5045826;28;20445;-82
2023/03/25 07:23:23;;;;;;;0.20;0.20;;;7.70;99.90;;;;;;5043158;28;20312;-82
2023/03/25 07:25:48;;;;;;;0.20;0.20;;;7.70;99.90;;;;;;5045425;28;20190;-82
2023/03/25 07:28:14;;;;;;;0.20;0.20;;;7.70;99.90;;;;;;5046771;28;20535;-81
2023/03/25 07:30:40;;;;;;;0.20;0.20;;;7.70;99.90;;;;;;5043253;28;20187;-82
2023/03/25 07:33:05;;;;;;;0.20;0.20;;;7.70;99.90;;;;;;5042647;28;20189;-82
2023/03/25 07:35:31;;;;;;;0.20;0.20;;;7.80;99.90;;;;;;5046989;28;20194;-81
2023/03/25 07:37:56;;;;;;;0.20;0.20;;;7.90;99.90;;;;;;5045052;28;20533;-81
2023/03/25 07:40:22;;;;;;;0.20;0.20;;;7.90;99.90;;;;;;5048348;28;20190;-81
2023/03/25 07:42:47;;;;;;;0.30;0.30;;;7.80;99.90;;;;;;5051816;28;20191;-81
2023/03/25 07:45:13;;;;;;;0.30;0.30;;;7.70;99.90;;;;;;5045981;28;20249;-82
2023/03/25 07:47:39;;;;;;;0.30;0.30;;;8.00;99.90;;;;;;5045641;28;20187;-82
2023/03/25 07:50:05;;;;;;;0.20;0.20;;;7.80;99.90;;;;;;5047506;28;20352;-81
2023/03/25 07:52:30;;;;;;;0.20;0.20;;;7.80;99.90;;;;;;5050053;28;20182;-82
2023/03/25 07:54:56;;;;;;;0.30;0.30;;;7.70;99.90;;;;;;5043071;28;20491;-85
2023/03/25 07:57:21;;;;;;;0.20;0.20;;;7.80;99.90;;;;;;5043465;28;20237;-82
2023/03/25 07:59:47;;;;;;;0.30;0.30;;;7.90;99.90;;;;;;5044799;28;20203;-83
2023/03/25 08:02:13;;;;;;;0.20;0.20;;;7.90;99.90;;;;;;5039435;28;20653;-83
2023/03/25 08:04:39;;;;;;;0.20;0.20;;;8.10;99.90;;;;;;5044717;28;20188;-83
2023/03/25 08:07:05;;;;;;;0.20;0.20;;;8.10;99.90;;;;;;5049723;28;20443;-83
2023/03/25 08:09:30;;;;;;;0.20;0.20;;;8.40;99.90;;;;;;5048451;28;20223;-83
2023/03/25 08:11:56;;;;;;;0.20;0.20;;;8.70;99.90;;;;;;5049649;28;20437;-83
2023/03/25 08:14:22;;;;;;;0.20;0.20;;;8.60;99.90;;;;;;5049760;28;20202;-83
2023/03/25 08:16:47;;;;;;;0.20;0.20;;;8.50;99.90;;;;;;5046462;28;20185;-83
2023/03/25 08:19:13;;;;;;;0.20;0.20;;;8.60;99.90;;;;;;5037534;28;20277;-81
2023/03/25 08:21:38;;;;;;;0.20;0.20;;;8.50;99.90;;;;;;5044340;28;20643;-81
2023/03/25 08:24:04;;;;;;;0.23;0.23;;;8.50;99.90;;;;;;5041901;28;20232;-82
2023/03/25 08:26:34;;;;;;;0.30;0.30;;;8.70;99.90;;;;;;5048478;28;20194;-82
2023/03/25 08:29:01;;;;;;;0.20;0.20;;;8.80;99.90;;;;;;5047057;28;20214;-84
2023/03/25 08:31:29;;;;;;;0.20;0.20;;;9.10;99.90;;;;;;5045166;28;20448;-83
2023/03/25 08:33:56;;;;;;;0.20;0.20;;;9.10;99.90;;;;;;5046734;28;20491;-81
2023/03/25 08:36:22;;;;;;;0.20;0.20;;;8.90;99.90;;;;;;5047653;28;20969;-82
2023/03/25 08:38:48;;;;;;;0.20;0.20;;;8.80;99.90;;;;;;5048184;28;20498;-84
2023/03/25 08:41:14;;;;;;;0.30;0.30;;;9.00;99.90;;;;;;5046672;28;20186;-81
2023/03/25 08:43:39;;;;;;;0.20;0.20;;;9.00;99.90;;;;;;5048644;28;20507;-83
2023/03/25 08:46:05;;;;;;;0.20;0.20;;;9.10;99.90;;;;;;5044770;28;20195;-83
2023/03/25 08:48:31;;;;;;;0.20;0.20;;;9.10;99.90;;;;;;5045136;28;20203;-83
2023/03/25 08:50:57;;;;;;;0.20;0.20;;;9.10;99.90;;;;;;5043937;28;20314;-82
2023/03/25 08:53:23;;;;;;;0.20;0.20;;;9.10;99.90;;;;;;5044912;28;20218;-82
2023/03/25 08:55:56;;;;;;;0.20;0.20;;;8.90;99.90;;;;;;5047327;28;20857;-83
2023/03/25 08:58:23;;;;;;;0.20;0.20;;;8.80;99.90;;;;;;5043563;28;20186;-84
2023/03/25 09:00:54;;;;;;;0.20;0.20;;;8.80;99.90;;;;;;5042029;28;20932;-83
2023/03/25 09:03:21;;;;;;;0.20;0.20;;;8.80;99.90;;;;;;5049886;28;20445;-82
2023/03/25 09:05:47;;;;;;;0.20;0.20;;;8.90;99.90;;;;;;5046991;28;20506;-83
2023/03/25 09:08:13;;;;;;;0.20;0.20;;;9.10;99.90;;;;;;5047415;28;20445;-83
2023/03/25 09:10:39;;;;;;;0.20;0.20;;;9.00;99.90;;;;;;5043325;28;20451;-81
2023/03/25 09:13:04;;;;;;;0.20;0.20;;;9.00;99.90;;;;;;5038503;28;20440;-81
2023/03/25 09:15:30;;;;;;;0.20;0.20;;;9.00;99.90;;;;;;5041632;28;20511;-82
2023/03/25 09:17:56;;;;;;;0.20;0.20;;;9.00;99.90;;;;;;5041213;28;20194;-82
2023/03/25 09:20:21;;;;;;;0.20;0.20;;;9.00;99.90;;;;;;5047886;28;20258;-82
2023/03/25 09:22:47;;;;;;;0.20;0.20;;;8.90;99.90;;;;;;5047473;28;20214;-82
2023/03/25 09:25:12;;;;;;;0.20;0.20;;;8.80;99.90;;;;;;5046695;28;20175;-82
2023/03/25 09:27:38;;;;;;;0.20;0.20;;;8.70;99.90;;;;;;5040720;28;20187;-82
2023/03/25 09:30:05;;;;;;;0.20;0.20;;;8.70;99.90;;;;;;5034548;28;20214;-82
2023/03/25 09:32:30;;;;;;;0.20;0.20;;;8.80;99.90;;;;;;5041288;28;20190;-81
2023/03/25 09:34:56;;;;;;;0.27;0.27;;;8.80;99.90;;;;;;5045836;28;20527;-81
2023/03/25 09:37:21;;;;;;;0.20;0.20;;;9.00;99.90;;;;;;5044718;28;20199;-82
2023/03/25 09:39:47;;;;;;;0.20;0.20;;;9.00;99.90;;;;;;5048017;28;20276;-82
2023/03/25 09:42:47;;;;;;;0.20;0.20;;;9.00;99.90;;;;;;5049111;28;20191;-81
2023/03/25 09:45:25;;;;;;;0.20;0.20;;;9.30;99.90;;;;;;5030933;28;20190;-81
2023/03/25 09:48:10;;;;;;;0.20;0.20;;;;;;;;;;5029905;28;20437;-81
2023/03/25 09:50:38;;;;;;;0.20;0.20;;;;;;;;;;5038643;28;20567;-79
2023/03/25 09:53:09;;;;;;;0.20;0.20;;;9.70;99.90;;;;;;5040018;28;20868;-80
2023/03/25 09:55:40;;;;;;;0.20;0.20;;;9.60;99.90;;;;;;5058232;28;20473;-81
2023/03/25 09:58:20;;;;;;;0.20;0.20;;;9.50;99.90;;;;;;5047131;28;20527;-82
2023/03/25 10:00:55;;;;;;;0.20;0.20;;;9.30;99.90;;;;;;5040848;28;21370;-82
2023/03/25 10:03:52;;;;;;;0.20;0.20;;;9.20;99.90;;;;;;5044122;28;20960;-82
2023/03/25 10:06:20;;;;;;;0.20;0.20;;;8.90;99.90;;;;;;5030227;28;20933;-82
2023/03/25 10:09:06;;;;;;;0.20;0.20;;;8.60;99.90;;;;;;5045923;28;20480;-82
2023/03/25 10:12:02;;;;;;;0.20;0.20;;;8.50;99.90;;;;;;5047710;28;21012;-82
2023/03/25 10:14:43;;;;;;;0.20;0.20;;;8.40;99.90;;;;;;5047149;28;20449;-82
2023/03/25 10:17:27;;;;;;;0.20;0.20;;;8.40;99.90;;;;;;5045859;28;20448;-82
2023/03/25 10:20:04;;;;;;;0.30;0.30;;;8.40;99.90;;;;;;5048172;28;20453;-83
2023/03/25 10:22:29;;;;;;;0.20;0.20;;;8.30;99.90;;;;;;5045172;28;20809;-82
2023/03/25 10:25:02;;;;;;;0.20;0.20;;;8.40;99.90;;;;;;5045283;28;20445;-83
2023/03/25 10:27:38;;;;;;;0.20;0.20;;;8.70;99.90;;;;;;5042508;28;20651;-82
2023/03/25 10:30:10;;;;;;;0.20;0.20;;;8.50;99.90;;;;;;5042213;28;20473;-81
2023/03/25 10:32:43;;;;;;;0.20;0.20;;;8.30;99.90;;;;;;5043727;28;20551;-81
2023/03/25 10:35:17;;;;;;;0.20;0.20;;;8.20;99.90;;;;;;5043268;28;20452;-81
2023/03/25 10:37:43;;;;;;;0.20;0.20;;;8.10;99.90;;;;;;5059815;28;20437;-81
2023/03/25 10:40:15;;;;;;;0.20;0.20;;;8.10;99.90;;;;;;5046014;28;20456;-81
2023/03/25 10:43:03;;;;;;;0.30;0.30;;;8.10;99.90;;;;;;5047607;28;20273;-81
2023/03/25 10:45:30;;;;;;;0.20;0.20;;;8.30;99.90;;;;;;5045771;28;20887;-81
2023/03/25 10:48:03;;;;;;;0.20;0.20;;;;;;;;;;5042585;28;20970;-81
2023/03/25 10:50:29;;;;;;;0.20;0.20;;;8.60;99.90;;;;;;5046302;28;20592;-81
2023/03/25 10:52:56;;;;;;;0.20;0.20;;;8.70;99.90;;;;;;5040644;28;20521;-81
2023/03/25 10:55:25;;;;;;;0.30;0.30;;;8.70;99.90;;;;;;5045147;28;21026;-81
2023/03/25 10:57:51;;;;;;;0.20;0.20;;;8.50;99.90;;;;;;5048041;28;20436;-81
2023/03/25 11:00:19;;;;;;;0.20;0.20;;;8.40;99.90;;;;;;5044197;28;20452;-81
2023/03/25 11:02:46;;;;;;;0.20;0.20;;;8.30;99.90;;;;;;5047827;28;20807;-81
2023/03/25 11:05:17;;;;;;;0.20;0.20;;;8.20;99.90;;;;;;5049580;28;20958;-80
2023/03/25 11:08:00;;;;;;;0.20;0.20;;;8.20;99.90;;;;;;5049623;28;20518;-80
2023/03/25 11:10:31;;;;;;;0.20;0.20;;;8.20;99.90;;;;;;5051043;28;20484;-85
2023/03/25 11:13:02;;;;;;;0.20;0.20;;;8.10;99.90;;;;;;5044860;28;20445;-81
2023/03/25 11:15:34;;;;;;;0.20;0.20;;;8.00;99.90;;;;;;5042492;28;20467;-81
2023/03/25 11:18:25;;;;;;;0.30;0.30;;;8.00;99.90;;;;;;5039808;28;20457;-81
2023/03/25 11:20:55;;;;;;;0.20;0.20;;;7.90;99.90;;;;;;5049812;28;20526;-80
2023/03/25 11:25:54;;;;;;;0.20;0.20;;;8.10;99.90;;;;;;5050672;28;20485;-82
2023/03/25 11:28:44;;;;;;;0.20;0.20;;;;;;;;;;5053860;28;20951;-80
2023/03/25 11:31:25;;;;;;;0.20;0.20;;;9.30;99.90;;;;;;5028001;28;20448;-82
2023/03/25 11:34:18;;;;;;;0.20;0.20;;;9.40;99.90;;;;;;5070748;28;20496;-81
2023/03/25 11:37:07;;;;;;;0.20;0.20;;;10.50;99.90;;;;;;5071721;28;20497;-81
2023/03/25 11:39:41;;;;;;;0.20;0.20;;;11.20;99.90;;;;;;5082310;23;20455;-81
2023/03/25 11:42:31;;;;;;;0.20;0.20;;;11.90;99.90;;;;;;5053709;28;20461;-81
2023/03/25 11:44:59;;;;;;;0.20;0.20;;;12.00;99.90;;;;;;5052552;28;20429;-80
2023/03/25 11:47:30;;;;;;;0.20;0.20;;;12.50;99.90;;;;;;5053618;28;20461;-81
2023/03/25 11:49:56;;;;;;;0.10;0.10;;;12.00;99.90;;;;;;5091613;22;20518;-80
2023/03/25 11:52:25;;;;;;;0.20;0.20;;;11.10;99.90;;;;;;5052671;28;20456;-82
2023/03/25 11:55:14;;;;;;;0.20;0.20;;;10.60;99.90;;;;;;5051019;28;20185;-82
2023/03/25 11:57:41;;;;;;;0.10;0.10;;;9.90;99.90;;;;;;5069127;28;20948;-82
2023/03/25 12:00:40;;;;;;;0.10;0.10;;;9.50;99.90;;;;;;5106076;22;20509;-82
2023/03/25 12:03:20;;;;;;;0.20;0.20;;;9.30;99.90;;;;;;5100987;28;20431;-81
2023/03/25 12:06:06;;;;;;;0.20;0.20;;;9.20;99.90;;;;;;5083626;28;20517;-82
2023/03/25 12:08:55;;;;;;;0.20;0.20;;;9.00;99.90;;;;;;5083990;22;20854;-82
2023/03/25 12:11:49;;;;;;;0.20;0.20;;;8.90;99.90;;;;;;5073466;28;20448;-81
2023/03/25 12:14:46;;;;;;;0.20;0.20;;;8.90;99.90;;;;;;5050264;28;20446;-81
2023/03/25 12:17:48;;;;;;;0.20;0.20;;;8.90;99.90;;;;;;5089368;22;20511;-80
2023/03/25 12:20:22;;;;;;;0.20;0.20;;;9.00;99.90;;;;;;5076172;28;20454;-80
2023/03/25 12:22:54;;;;;;;0.20;0.20;;;8.90;99.90;;;;;;5073100;28;20408;-80
2023/03/25 12:25:35;;;;;;;0.20;0.20;;;8.80;99.90;;;;;;5082662;22;20995;-80
2023/03/25 12:28:10;;;;;;;0.20;0.20;;;8.80;99.90;;;;;;5075036;28;20453;-80
2023/03/25 12:31:10;;;;;;;0.20;0.20;;;8.90;99.90;;;;;;5069729;28;20473;-80
2023/03/25 12:36:30;;;;;;;0.20;0.20;;;8.70;99.90;;;;;;5122447;22;20526;-82
2023/03/25 12:39:43;;;;;;;0.20;0.20;;;8.50;99.90;;;;;;5064876;28;20270;-82
2023/03/25 12:45:14;;;;;;;0.20;0.20;;;8.30;99.90;;;;;;5089389;22;20495;-80
2023/03/25 12:48:06;;;;;;;0.20;0.20;;;8.30;99.90;;;;;;5053493;28;20493;-82
2023/03/25 12:51:11;;;;;;;0.20;0.20;;;8.20;99.90;;;;;;5069098;28;20506;-82
2023/03/25 12:53:46;;;;;;;0.20;0.20;;;8.20;99.90;;;;;;5093313;22;20494;-82
2023/03/25 12:57:09;;;;;;;0.20;0.20;;;8.20;99.90;;;;;;5089775;28;20568;-82
2023/03/25 13:00:02;;;;;;;0.30;0.30;;;8.30;99.90;;;;;;5048654;28;20441;-80
2023/03/25 13:02:59;;;;;;;0.30;0.30;;;8.20;99.90;;;;;;5099738;22;20498;-79
2023/03/25 13:06:01;;;;;;;0.20;0.20;;;8.20;99.90;;;;;;5094592;28;20481;-81
2023/03/25 13:08:29;;;;;;;0.20;0.20;;;8.40;99.90;;;;;;5094274;28;20441;-81
2023/03/25 13:11:06;;;;;;;0.20;0.20;;;8.70;99.90;;;;;;5077931;22;20492;-80
2023/03/25 13:13:35;;;;;;;0.20;0.20;;;10.50;99.90;;;;;;5071344;28;20459;-81
2023/03/25 13:16:22;;;;;;;0.10;0.10;;;11.60;99.90;;;;;;5075540;28;20810;-83
2023/03/25 13:18:59;;;;;;;0.10;0.10;;;12.10;99.90;;;;;;5106609;22;20490;-83
2023/03/25 13:21:40;;;;;;;0.10;0.10;;;11.90;99.90;;;;;;5053971;28;20505;-83
2023/03/25 13:24:29;;;;;;;0.13;0.13;;;11.30;99.90;;;;;;5057288;28;20446;-80
2023/03/25 13:26:56;;;;;;;0.10;0.10;;;11.40;99.90;;;;;;5058042;28;20456;-81
2023/03/25 13:29:38;;;;;;;0.10;0.10;;;10.80;99.90;;;;;;5072594;28;20499;-81
2023/03/25 13:32:33;;;;;;;0.10;0.10;;;10.40;99.90;;;;;;5069584;28;20672;-84
2023/03/25 13:35:14;;;;;;;0.20;0.20;;;10.00;99.90;;;;;;5049266;28;20471;-84
2023/03/25 13:37:55;;;;;;;0.10;0.10;;;9.50;99.90;;;;;;5083413;22;20532;-82